Station Historical Data
Daily Summary for January 3, 2017 Units:  English    Metric   Both
« Previous Day
Next Day »
Daily Weekly Monthly Yearly Custom
  High: Low: Average:
Temperature: 43.3 °F 38.7 °F 41.9 °F
Dew Point: 41.7 °F 35.8 °F 39.4 °F
Humidity: 95% 86% 91%
Wind Speed: 6.0mph 0.0mph 1.2mph
Wind Gust: 10.0mph - -
Wind- - SE
Pressure: 30.05 in 29.44 in -
Precipitation: 0.00 in    
Historical Graphs
 
 
Tabular Data for January 3, 2017
Time Temperature Dew Point Pressure Wind Wind Speed Wind Gust Humidity Rainfall Rate (Hourly)
00:04 40.7 °F 36.8 °F 30.05 in ESE 2.0 mph 6.0 mph 86% 0.00 in
00:09 40.6 °F 36.7 °F 30.04 in East 2.0 mph 6.0 mph 86% 0.00 in
00:14 40.6 °F 36.7 °F 30.04 in SE 3.0 mph 5.0 mph 86% 0.00 in
00:19 40.6 °F 36.7 °F 30.04 in SE 3.0 mph 4.0 mph 86% 0.00 in
00:24 40.5 °F 36.6 °F 30.04 in ESE 1.0 mph 3.0 mph 86% 0.00 in
00:29 40.5 °F 36.6 °F 30.04 in SE 2.0 mph 3.0 mph 86% 0.00 in
00:34 40.5 °F 36.6 °F 30.04 in SE 1.0 mph 4.0 mph 86% 0.00 in
00:39 40.5 °F 36.6 °F 30.05 in East 2.0 mph 4.0 mph 86% 0.00 in
00:44 40.5 °F 36.6 °F 30.05 in Calm   2.0 mph 86% 0.00 in
00:49 40.5 °F 36.6 °F 30.05 in Calm     86% 0.00 in
00:54 40.5 °F 36.6 °F 30.04 in Calm     86% 0.00 in
00:59 40.4 °F 36.5 °F 30.04 in Calm   3.0 mph 86% 0.00 in
01:04 40.4 °F 36.5 °F 30.04 in Calm   3.0 mph 86% 0.00 in
01:09 40.5 °F 36.6 °F 30.04 in Calm   2.0 mph 86% 0.00 in
01:14 40.4 °F 36.8 °F 30.04 in ESE 1.0 mph 3.0 mph 87% 0.00 in
01:19 40.5 °F 36.9 °F 30.05 in Calm   2.0 mph 87% 0.00 in
01:24 40.6 °F 37.0 °F 30.03 in Calm     87% 0.00 in
01:29 40.5 °F 36.9 °F 30.02 in Calm   3.0 mph 87% 0.00 in
01:34 40.5 °F 36.9 °F 30.02 in ESE 1.0 mph 3.0 mph 87% 0.00 in
01:39 40.4 °F 36.8 °F 30.03 in SE 1.0 mph 4.0 mph 87% 0.00 in
01:44 40.5 °F 36.9 °F 30.03 in Calm   2.0 mph 87% 0.00 in
01:49 40.4 °F 36.8 °F 30.03 in Calm     87% 0.00 in
01:54 40.2 °F 36.6 °F 30.02 in Calm     87% 0.00 in
01:59 40.3 °F 36.7 °F 30.02 in Calm     87% 0.00 in
02:04 40.2 °F 36.6 °F 30.01 in Calm   3.0 mph 87% 0.00 in
02:09 40.1 °F 36.5 °F 30.01 in SE 1.0 mph 3.0 mph 87% 0.00 in
02:14 40.0 °F 36.4 °F 30.01 in Calm   3.0 mph 87% 0.00 in
02:19 39.9 °F 36.6 °F 30.01 in Calm   3.0 mph 88% 0.00 in
02:24 39.6 °F 36.3 °F 30.01 in Calm     88% 0.00 in
02:29 39.4 °F 36.4 °F 30.01 in Calm     89% 0.00 in
02:34 39.3 °F 36.0 °F 30.00 in Calm     88% 0.00 in
02:39 39.1 °F 36.1 °F 30.00 in Calm     89% 0.00 in
02:44 38.9 °F 35.9 °F 30.01 in Calm     89% 0.00 in
02:49 38.8 °F 35.8 °F 30.01 in Calm     89% 0.00 in
02:54 38.7 °F 36.0 °F 30.00 in Calm     90% 0.00 in
02:59 39.0 °F 36.3 °F 29.99 in Calm     90% 0.00 in
03:04 39.3 °F 36.6 °F 30.00 in Calm     90% 0.00 in
03:09 39.5 °F 36.8 °F 30.00 in Calm     90% 0.00 in
03:14 39.8 °F 36.8 °F 30.00 in Calm     89% 0.00 in
03:19 40.0 °F 37.0 °F 30.00 in Calm     89% 0.00 in
03:24 40.2 °F 37.2 °F 29.99 in Calm     89% 0.00 in
03:29 40.2 °F 36.9 °F 29.99 in Calm     88% 0.00 in
03:34 40.3 °F 37.0 °F 29.99 in Calm     88% 0.00 in
03:39 40.5 °F 37.2 °F 29.99 in Calm     88% 0.00 in
03:44 40.6 °F 37.3 °F 29.98 in Calm     88% 0.00 in
03:49 40.6 °F 37.3 °F 29.98 in Calm     88% 0.00 in
03:54 40.7 °F 37.4 °F 29.98 in Calm     88% 0.00 in
03:59 40.7 °F 37.4 °F 29.97 in Calm     88% 0.00 in
04:04 40.8 °F 37.5 °F 29.97 in Calm     88% 0.00 in
04:09 40.9 °F 37.6 °F 29.97 in Calm     88% 0.00 in
04:14 41.1 °F 37.5 °F 29.97 in Calm     87% 0.00 in
04:19 41.1 °F 37.5 °F 29.97 in Calm     87% 0.00 in
04:24 41.2 °F 37.6 °F 29.96 in Calm     87% 0.00 in
04:29 41.2 °F 37.6 °F 29.96 in Calm     87% 0.00 in
04:34 41.3 °F 37.7 °F 29.95 in Calm     87% 0.00 in
04:39 41.2 °F 37.9 °F 29.95 in Calm     88% 0.00 in
04:44 41.2 °F 37.9 °F 29.95 in Calm     88% 0.00 in
04:49 41.1 °F 38.1 °F 29.94 in Calm     89% 0.00 in
04:54 41.0 °F 38.0 °F 29.94 in Calm     89% 0.00 in
04:59 41.0 °F 38.0 °F 29.94 in Calm     89% 0.00 in
05:04 41.0 °F 38.0 °F 29.94 in Calm     89% 0.00 in
05:09 41.0 °F 38.0 °F 29.93 in Calm     89% 0.00 in
05:14 41.0 °F 38.0 °F 29.93 in Calm     89% 0.00 in
05:19 41.1 °F 38.1 °F 29.93 in Calm     89% 0.00 in
05:24 41.2 °F 38.2 °F 29.93 in Calm     89% 0.00 in
05:29 41.3 °F 38.3 °F 29.93 in Calm     89% 0.00 in
05:34 41.3 °F 38.3 °F 29.92 in Calm     89% 0.00 in
05:39 41.4 °F 38.4 °F 29.92 in Calm     89% 0.00 in
05:44 41.5 °F 38.5 °F 29.92 in Calm     89% 0.00 in
05:49 41.5 °F 38.5 °F 29.92 in Calm     89% 0.00 in
05:54 41.5 °F 38.5 °F 29.92 in Calm     89% 0.00 in
05:59 41.5 °F 38.5 °F 29.91 in Calm     89% 0.00 in
06:04 41.4 °F 38.4 °F 29.91 in Calm     89% 0.00 in
06:09 41.4 °F 38.4 °F 29.91 in Calm     89% 0.00 in
06:14 41.3 °F 38.3 °F 29.91 in Calm     89% 0.00 in
06:19 41.3 °F 38.3 °F 29.90 in Calm     89% 0.00 in
06:24 41.5 °F 38.5 °F 29.90 in Calm     89% 0.00 in
06:29 41.6 °F 38.6 °F 29.90 in East 1.0 mph 3.0 mph 89% 0.00 in
06:34 41.7 °F 38.7 °F 29.90 in Calm   3.0 mph 89% 0.00 in
06:39 41.8 °F 38.5 °F 29.89 in East 2.0 mph 5.0 mph 88% 0.00 in
06:44 41.9 °F 38.6 °F 29.89 in East 1.0 mph 5.0 mph 88% 0.00 in
06:49 41.9 °F 38.6 °F 29.89 in East 2.0 mph 5.0 mph 88% 0.00 in
06:54 42.0 °F 38.7 °F 29.88 in ENE 2.0 mph 5.0 mph 88% 0.00 in
06:59 42.0 °F 38.7 °F 29.88 in East 2.0 mph 3.0 mph 88% 0.00 in
07:04 42.0 °F 38.7 °F 29.88 in East 2.0 mph 3.0 mph 88% 0.00 in
07:09 41.9 °F 38.6 °F 29.88 in East 1.0 mph 4.0 mph 88% 0.00 in
07:14 41.9 °F 38.6 °F 29.87 in East 1.0 mph 4.0 mph 88% 0.00 in
07:19 41.9 °F 38.6 °F 29.87 in East 1.0 mph 3.0 mph 88% 0.00 in
07:24 42.0 °F 38.7 °F 29.87 in East 1.0 mph 3.0 mph 88% 0.00 in
07:29 42.0 °F 38.7 °F 29.86 in East 2.0 mph 5.0 mph 88% 0.00 in
07:34 42.2 °F 38.9 °F 29.86 in East 1.0 mph 5.0 mph 88% 0.00 in
07:39 42.2 °F 38.9 °F 29.86 in Calm   1.0 mph 88% 0.00 in
07:44 42.2 °F 38.6 °F 29.86 in Calm     87% 0.00 in
07:49 42.4 °F 38.8 °F 29.85 in ESE 1.0 mph 5.0 mph 87% 0.00 in
07:54 42.3 °F 38.7 °F 29.85 in East 2.0 mph 4.0 mph 87% 0.00 in
07:59 42.5 °F 38.9 °F 29.85 in East 1.0 mph 5.0 mph 87% 0.00 in
08:04 42.5 °F 38.9 °F 29.84 in East 2.0 mph 6.0 mph 87% 0.00 in
08:09 42.6 °F 39.0 °F 29.84 in East 1.0 mph 6.0 mph 87% 0.00 in
08:14 42.7 °F 39.1 °F 29.84 in ESE 2.0 mph 7.0 mph 87% 0.00 in
08:19 42.8 °F 38.9 °F 29.83 in East 2.0 mph 7.0 mph 86% 0.00 in
08:24 42.9 °F 39.0 °F 29.83 in SSE 1.0 mph 6.0 mph 86% 0.00 in
08:29 42.9 °F 39.0 °F 29.83 in East 1.0 mph 6.0 mph 86% 0.00 in
08:34 43.0 °F 39.1 °F 29.83 in East 1.0 mph 5.0 mph 86% 0.00 in
08:39 43.0 °F 39.1 °F 29.83 in East 1.0 mph 5.0 mph 86% 0.00 in
08:44 43.1 °F 39.2 °F 29.83 in ENE 3.0 mph 4.0 mph 86% 0.00 in
08:49 43.0 °F 39.1 °F 29.82 in East 1.0 mph 5.0 mph 86% 0.00 in
08:54 43.1 °F 39.2 °F 29.82 in East 2.0 mph 6.0 mph 86% 0.00 in
08:59 43.1 °F 39.2 °F 29.82 in East 2.0 mph 5.0 mph 86% 0.00 in
09:04 43.2 °F 39.3 °F 29.82 in Calm   5.0 mph 86% 0.00 in
09:09 43.2 °F 39.3 °F 29.82 in Calm   3.0 mph 86% 0.00 in
09:14 43.1 °F 39.5 °F 29.81 in ESE 1.0 mph 3.0 mph 87% 0.00 in
09:19 43.0 °F 39.4 °F 29.81 in ESE 1.0 mph 3.0 mph 87% 0.00 in
09:24 43.0 °F 39.4 °F 29.81 in ESE 1.0 mph 7.0 mph 87% 0.00 in
09:29 43.0 °F 39.7 °F 29.81 in ESE 2.0 mph 7.0 mph 88% 0.00 in
09:34 43.0 °F 39.7 °F 29.81 in ESE 2.0 mph 7.0 mph 88% 0.00 in
09:39 43.0 °F 39.7 °F 29.81 in SSE 1.0 mph 4.0 mph 88% 0.00 in
09:44 43.0 °F 39.7 °F 29.80 in SE 1.0 mph 4.0 mph 88% 0.00 in
09:49 43.0 °F 39.7 °F 29.80 in Calm   4.0 mph 88% 0.00 in
09:54 43.1 °F 39.8 °F 29.80 in Calm   5.0 mph 88% 0.00 in
09:59 43.0 °F 39.7 °F 29.80 in SE 3.0 mph 5.0 mph 88% 0.00 in
10:04 43.1 °F 39.8 °F 29.79 in SE 2.0 mph 5.0 mph 88% 0.00 in
10:09 43.2 °F 39.9 °F 29.79 in SE 2.0 mph 4.0 mph 88% 0.00 in
10:14 43.2 °F 40.2 °F 29.79 in SE 2.0 mph 4.0 mph 89% 0.01 in
10:19 43.2 °F 40.2 °F 29.79 in SE 1.0 mph 4.0 mph 89% 0.01 in
10:24 43.1 °F 40.1 °F 29.78 in SE 1.0 mph 4.0 mph 89% 0.01 in
10:29 43.1 °F 40.1 °F 29.78 in SE 1.0 mph 4.0 mph 89% 0.02 in
10:34 43.1 °F 40.4 °F 29.78 in SE 1.0 mph 4.0 mph 90% 0.02 in
10:39 43.0 °F 40.0 °F 29.77 in SE 1.0 mph 4.0 mph 89% 0.03 in
10:44 43.0 °F 40.3 °F 29.77 in ESE 1.0 mph 5.0 mph 90% 0.03 in
10:49 43.1 °F 40.4 °F 29.77 in ESE 1.0 mph 5.0 mph 90% 0.04 in
10:54 43.0 °F 40.3 °F 29.76 in ESE 3.0 mph 4.0 mph 90% 0.05 in
10:59 43.1 °F 40.7 °F 29.76 in ESE 1.0 mph 3.0 mph 91% 0.05 in
11:04 43.0 °F 40.6 °F 29.76 in ESE 1.0 mph 3.0 mph 91% 0.06 in
11:09 43.0 °F 40.6 °F 29.75 in ESE 1.0 mph 5.0 mph 91% 0.06 in
11:14 43.0 °F 40.6 °F 29.75 in Calm   2.0 mph 91% 0.06 in
11:19 43.0 °F 40.6 °F 29.75 in Calm   2.0 mph 91% 0.07 in
11:24 42.9 °F 40.5 °F 29.74 in ESE 1.0 mph 2.0 mph 91% 0.08 in
11:29 42.9 °F 40.7 °F 29.74 in ESE 1.0 mph 3.0 mph 92% 0.08 in
11:34 42.9 °F 40.7 °F 29.74 in ESE 1.0 mph 3.0 mph 92% 0.09 in
11:39 43.0 °F 40.8 °F 29.74 in Calm   2.0 mph 92% 0.10 in
11:44 42.9 °F 40.7 °F 29.73 in Calm     92% 0.11 in
11:49 42.9 °F 40.7 °F 29.73 in Calm     92% 0.10 in
11:54 43.0 °F 40.8 °F 29.73 in Calm     92% 0.10 in
11:59 43.1 °F 40.9 °F 29.72 in Calm     92% 0.12 in
12:04 43.0 °F 40.8 °F 29.72 in Calm     92% 0.12 in
12:09 42.9 °F 40.7 °F 29.72 in Calm     92% 0.12 in
12:14 42.9 °F 40.7 °F 29.71 in Calm     92% 0.12 in
12:19 43.0 °F 41.1 °F 29.71 in Calm     93% 0.11 in
12:24 43.0 °F 41.1 °F 29.70 in Calm     93% 0.11 in
12:29 43.0 °F 41.1 °F 29.70 in Calm     93% 0.11 in
12:34 43.1 °F 41.2 °F 29.70 in Calm     93% 0.10 in
12:39 43.0 °F 41.1 °F 29.69 in Calm     93% 0.09 in
12:44 43.0 °F 41.1 °F 29.69 in Calm     93% 0.09 in
12:49 43.0 °F 41.1 °F 29.69 in ENE 3.0 mph 3.0 mph 93% 0.09 in
12:54 43.0 °F 41.1 °F 29.68 in ENE 2.0 mph 3.0 mph 93% 0.09 in
12:59 43.0 °F 41.1 °F 29.68 in ENE 2.0 mph 3.0 mph 93% 0.07 in
13:04 43.0 °F 41.1 °F 29.68 in ENE 2.0 mph 4.0 mph 93% 0.07 in
13:09 43.0 °F 41.4 °F 29.67 in NE 2.0 mph 3.0 mph 94% 0.07 in
13:14 43.0 °F 41.4 °F 29.67 in Calm   5.0 mph 94% 0.06 in
13:19 43.1 °F 41.5 °F 29.67 in NE 2.0 mph 5.0 mph 94% 0.07 in
13:24 43.1 °F 41.5 °F 29.66 in NE 2.0 mph 4.0 mph 94% 0.06 in
13:29 43.1 °F 41.5 °F 29.66 in NE 3.0 mph 4.0 mph 94% 0.06 in
13:34 43.1 °F 41.5 °F 29.66 in NE 2.0 mph 4.0 mph 94% 0.06 in
13:39 43.1 °F 41.5 °F 29.65 in NE 2.0 mph 4.0 mph 94% 0.06 in
13:44 43.2 °F 41.6 °F 29.65 in NE 2.0 mph 4.0 mph 94% 0.05 in
13:49 43.2 °F 41.6 °F 29.65 in NE 2.0 mph 4.0 mph 94% 0.06 in
13:54 43.3 °F 41.7 °F 29.65 in NE 2.0 mph 3.0 mph 94% 0.05 in
13:59 43.3 °F 41.7 °F 29.64 in NE 1.0 mph 4.0 mph 94% 0.05 in
14:04 43.2 °F 41.6 °F 29.64 in ENE 2.0 mph 5.0 mph 94% 0.04 in
14:09 43.3 °F 41.7 °F 29.64 in East 2.0 mph 3.0 mph 94% 0.05 in
14:14 43.2 °F 41.6 °F 29.63 in NE 2.0 mph 4.0 mph 94% 0.05 in
14:19 43.3 °F 41.7 °F 29.63 in NE 3.0 mph 4.0 mph 94% 0.04 in
14:24 43.3 °F 41.7 °F 29.62 in NE 2.0 mph 4.0 mph 94% 0.04 in
14:29 43.2 °F 41.6 °F 29.62 in NE 2.0 mph 4.0 mph 94% 0.03 in
14:34 43.2 °F 41.6 °F 29.62 in NE 3.0 mph 3.0 mph 94% 0.04 in
14:39 43.2 °F 41.6 °F 29.62 in NE 2.0 mph 3.0 mph 94% 0.03 in
14:44 43.2 °F 41.6 °F 29.62 in NE 1.0 mph 3.0 mph 94% 0.03 in
14:49 43.2 °F 41.6 °F 29.61 in NE 1.0 mph 3.0 mph 94% 0.02 in
14:54 43.2 °F 41.6 °F 29.61 in NE 2.0 mph 3.0 mph 94% 0.02 in
14:59 43.2 °F 41.6 °F 29.61 in NE 1.0 mph 3.0 mph 94% 0.02 in
15:04 43.2 °F 41.6 °F 29.61 in NE 1.0 mph 3.0 mph 94% 0.03 in
15:09 43.2 °F 41.6 °F 29.61 in Calm   3.0 mph 94% 0.02 in
15:14 43.2 °F 41.6 °F 29.60 in NE 1.0 mph 3.0 mph 94% 0.02 in
15:19 43.2 °F 41.6 °F 29.60 in Calm     94% 0.03 in
15:24 43.2 °F 41.6 °F 29.60 in East 2.0 mph 3.0 mph 94% 0.03 in
15:29 43.2 °F 41.6 °F 29.60 in Calm   3.0 mph 94% 0.04 in
15:34 43.2 °F 41.6 °F 29.60 in ESE 1.0 mph 3.0 mph 94% 0.03 in
15:39 43.2 °F 41.6 °F 29.59 in ESE 1.0 mph 2.0 mph 94% 0.03 in
15:44 43.2 °F 41.6 °F 29.59 in Calm   5.0 mph 94% 0.04 in
15:49 43.1 °F 41.5 °F 29.59 in Calm   5.0 mph 94% 0.04 in
15:54 43.1 °F 41.5 °F 29.59 in Calm   3.0 mph 94% 0.04 in
15:59 43.0 °F 41.4 °F 29.59 in Calm   3.0 mph 94% 0.05 in
16:04 42.9 °F 41.3 °F 29.59 in Calm   3.0 mph 94% 0.05 in
16:09 42.9 °F 41.3 °F 29.58 in SE 2.0 mph 4.0 mph 94% 0.05 in
16:14 42.9 °F 41.3 °F 29.58 in ESE 2.0 mph 3.0 mph 94% 0.06 in
16:19 42.8 °F 41.2 °F 29.58 in ESE 1.0 mph 3.0 mph 94% 0.05 in
16:24 42.8 °F 41.2 °F 29.58 in Calm     94% 0.06 in
16:29 42.8 °F 41.2 °F 29.58 in Calm   2.0 mph 94% 0.05 in
16:34 42.7 °F 41.1 °F 29.58 in Calm     94% 0.06 in
16:39 42.7 °F 41.1 °F 29.57 in Calm     94% 0.07 in
16:44 42.6 °F 41.0 °F 29.57 in Calm     94% 0.06 in
16:49 42.5 °F 40.9 °F 29.57 in Calm     94% 0.07 in
16:54 42.5 °F 40.9 °F 29.57 in Calm     94% 0.08 in
16:59 42.5 °F 40.9 °F 29.57 in Calm     94% 0.07 in
17:04 42.5 °F 40.9 °F 29.57 in Calm     94% 0.07 in
17:09 42.4 °F 40.8 °F 29.58 in Calm     94% 0.07 in
17:14 42.3 °F 40.7 °F 29.58 in Calm     94% 0.07 in
17:19 42.2 °F 40.6 °F 29.57 in Calm     94% 0.07 in
17:24 42.3 °F 40.7 °F 29.57 in Calm     94% 0.06 in
17:29 42.3 °F 40.7 °F 29.57 in Calm     94% 0.06 in
17:34 42.3 °F 40.7 °F 29.57 in Calm     94% 0.05 in
17:39 42.3 °F 40.7 °F 29.56 in Calm     94% 0.04 in
17:44 42.2 °F 40.6 °F 29.56 in Calm     94% 0.04 in
17:49 42.2 °F 40.6 °F 29.56 in Calm     94% 0.03 in
17:54 42.2 °F 40.6 °F 29.56 in Calm   3.0 mph 94% 0.02 in
17:59 42.2 °F 40.6 °F 29.56 in SSE 1.0 mph 3.0 mph 94% 0.03 in
18:04 42.2 °F 40.6 °F 29.55 in SSE 1.0 mph 3.0 mph 94% 0.02 in
18:09 42.2 °F 40.6 °F 29.55 in SSE 1.0 mph 2.0 mph 94% 0.02 in
18:14 42.1 °F 40.5 °F 29.55 in Calm   3.0 mph 94% 0.01 in
18:19 42.0 °F 40.4 °F 29.54 in SSE 1.0 mph 3.0 mph 94% 0.01 in
18:24 42.0 °F 40.4 °F 29.54 in SSE 1.0 mph 3.0 mph 94% 0.01 in
18:29 42.0 °F 40.4 °F 29.54 in SSE 3.0 mph 3.0 mph 94% 0.01 in
18:34 42.0 °F 40.4 °F 29.54 in SSE 1.0 mph 4.0 mph 94% 0.01 in
18:39 41.9 °F 40.3 °F 29.54 in South 1.0 mph 4.0 mph 94% 0.01 in
18:44 41.9 °F 40.3 °F 29.54 in Calm   2.0 mph 94% 0.01 in
18:49 41.8 °F 40.2 °F 29.54 in Calm   2.0 mph 94% 0.01 in
18:54 41.9 °F 40.3 °F 29.53 in Calm     94% 0.01 in
18:59 41.9 °F 40.3 °F 29.53 in Calm   2.0 mph 94% 0.00 in
19:04 41.9 °F 40.3 °F 29.53 in South 1.0 mph 3.0 mph 94% 0.00 in
19:09 41.9 °F 40.3 °F 29.53 in South 1.0 mph 3.0 mph 94% 0.00 in
19:14 41.9 °F 40.3 °F 29.53 in South 2.0 mph 3.0 mph 94% 0.00 in
19:19 41.8 °F 40.2 °F 29.53 in South 2.0 mph 3.0 mph 94% 0.00 in
19:24 41.9 °F 40.3 °F 29.53 in South 2.0 mph 2.0 mph 94% 0.00 in
19:29 41.8 °F 40.2 °F 29.53 in South 1.0 mph 2.0 mph 94% 0.00 in
19:34 41.8 °F 40.2 °F 29.52 in South 1.0 mph 3.0 mph 94% 0.00 in
19:39 41.8 °F 40.2 °F 29.52 in South 1.0 mph 3.0 mph 94% 0.00 in
19:44 41.8 °F 40.2 °F 29.52 in Calm   3.0 mph 94% 0.00 in
19:49 41.8 °F 40.2 °F 29.51 in Calm     94% 0.00 in
19:54 41.7 °F 40.1 °F 29.51 in SW 2.0 mph 3.0 mph 94% 0.00 in
19:59 41.7 °F 40.1 °F 29.51 in SSW 2.0 mph 4.0 mph 94% 0.00 in
20:04 41.8 °F 40.2 °F 29.51 in SSW 2.0 mph 4.0 mph 94% 0.00 in
20:09 41.8 °F 40.2 °F 29.51 in SSW 2.0 mph 4.0 mph 94% 0.01 in
20:14 41.8 °F 40.2 °F 29.50 in SW 2.0 mph 4.0 mph 94% 0.01 in
20:19 41.7 °F 40.1 °F 29.50 in SW 2.0 mph 5.0 mph 94% 0.01 in
20:24 41.8 °F 40.2 °F 29.50 in SW 2.0 mph 5.0 mph 94% 0.01 in
20:29 41.8 °F 40.2 °F 29.50 in SSW 1.0 mph 5.0 mph 94% 0.01 in
20:34 41.7 °F 40.1 °F 29.49 in SW 1.0 mph 6.0 mph 94% 0.02 in
20:39 41.7 °F 40.1 °F 29.49 in SW 4.0 mph 4.0 mph 94% 0.02 in
20:44 41.6 °F 40.0 °F 29.49 in SW 2.0 mph 6.0 mph 94% 0.02 in
20:49 41.6 °F 40.0 °F 29.49 in SSW 2.0 mph 4.0 mph 94% 0.02 in
20:54 41.6 °F 40.0 °F 29.48 in WSW 3.0 mph 4.0 mph 94% 0.02 in
20:59 41.6 °F 40.3 °F 29.49 in SSW 3.0 mph 5.0 mph 95% 0.02 in
21:04 41.6 °F 40.3 °F 29.48 in WSW 3.0 mph 5.0 mph 95% 0.02 in
21:09 41.6 °F 40.0 °F 29.48 in WSW 4.0 mph 5.0 mph 94% 0.01 in
21:14 41.5 °F 39.9 °F 29.48 in SW 3.0 mph 5.0 mph 94% 0.01 in
21:19 41.5 °F 39.9 °F 29.48 in WSW 3.0 mph 5.0 mph 94% 0.02 in
21:24 41.4 °F 39.8 °F 29.48 in WSW 3.0 mph 6.0 mph 94% 0.02 in
21:29 41.4 °F 39.8 °F 29.48 in WSW 4.0 mph 6.0 mph 94% 0.02 in
21:34 41.3 °F 39.7 °F 29.48 in SSW 4.0 mph 7.0 mph 94% 0.01 in
21:39 41.3 °F 39.7 °F 29.48 in WSW 3.0 mph 7.0 mph 94% 0.02 in
21:44 41.3 °F 39.7 °F 29.47 in WSW 3.0 mph 6.0 mph 94% 0.02 in
21:49 41.3 °F 39.7 °F 29.47 in SW 5.0 mph 6.0 mph 94% 0.02 in
21:54 41.2 °F 39.9 °F 29.47 in SW 5.0 mph 7.0 mph 95% 0.02 in
21:59 41.2 °F 39.9 °F 29.47 in WSW 5.0 mph 6.0 mph 95% 0.02 in
22:04 41.2 °F 39.9 °F 29.47 in SW 3.0 mph 7.0 mph 95% 0.02 in
22:09 41.2 °F 39.9 °F 29.47 in SW 4.0 mph 8.0 mph 95% 0.02 in
22:14 41.1 °F 39.8 °F 29.47 in SW 5.0 mph 7.0 mph 95% 0.03 in
22:19 41.1 °F 39.8 °F 29.47 in WSW 3.0 mph 10.0 mph 95% 0.02 in
22:24 41.1 °F 39.8 °F 29.47 in SW 3.0 mph 6.0 mph 95% 0.02 in
22:29 41.1 °F 39.8 °F 29.47 in SW 4.0 mph 9.0 mph 95% 0.02 in
22:34 41.1 °F 39.8 °F 29.47 in SW 4.0 mph 9.0 mph 95% 0.02 in
22:39 41.1 °F 39.8 °F 29.47 in West 4.0 mph 7.0 mph 95% 0.01 in
22:44 41.0 °F 39.7 °F 29.47 in SW 5.0 mph 9.0 mph 95% 0.01 in
22:49 41.0 °F 39.7 °F 29.47 in WSW 5.0 mph 7.0 mph 95% 0.01 in
22:54 41.0 °F 39.7 °F 29.47 in WSW 4.0 mph 7.0 mph 95% 0.01 in
22:59 41.0 °F 39.7 °F 29.47 in WSW 3.0 mph 7.0 mph 95% 0.01 in
23:04 41.0 °F 39.7 °F 29.46 in WNW 2.0 mph 7.0 mph 95% 0.01 in
23:09 41.0 °F 39.7 °F 29.46 in WSW 4.0 mph 7.0 mph 95% 0.01 in
23:14 40.9 °F 39.6 °F 29.46 in WSW 3.0 mph 8.0 mph 95% 0.00 in
23:19 40.9 °F 39.6 °F 29.46 in WSW 2.0 mph 8.0 mph 95% 0.00 in
23:24 40.9 °F 39.6 °F 29.46 in WSW 3.0 mph 7.0 mph 95% 0.00 in
23:29 40.8 °F 39.5 °F 29.46 in WSW 4.0 mph 8.0 mph 95% 0.00 in
23:34 40.7 °F 39.4 °F 29.46 in WSW 4.0 mph 8.0 mph 95% 0.00 in
23:39 40.6 °F 39.3 °F 29.45 in WSW 6.0 mph 7.0 mph 95% 0.00 in
23:44 40.4 °F 39.1 °F 29.45 in WSW 4.0 mph 7.0 mph 95% 0.00 in
23:49 40.4 °F 39.1 °F 29.45 in WSW 4.0 mph 8.0 mph 95% 0.00 in
23:54 40.2 °F 38.9 °F 29.44 in SW 5.0 mph 8.0 mph 95% 0.00 in
23:59 40.3 °F 39.0 °F 29.44 in WSW 3.0 mph 6.0 mph 95% 0.00 in
Buffalo, New York, USA
Compliments of Weather Underground - 2.5 mb